sensor_id;sensor_type;location;lat;lon;timestamp;pressure;altitude;pressure_sealevel;temperature;humidity
10135;BME280;5107;48.850;8.924;2023-08-07T00:00:03;96653.50;;;11.24;93.32
10135;BME280;5107;48.850;8.924;2023-08-07T00:02:29;96653.97;;;11.27;92.58
10135;BME280;5107;48.850;8.924;2023-08-07T00:04:54;96656.44;;;11.29;92.59
10135;BME280;5107;48.850;8.924;2023-08-07T00:07:19;96651.16;;;11.29;92.13
10135;BME280;5107;48.850;8.924;2023-08-07T00:09:45;96653.44;;;11.32;91.46
10135;BME280;5107;48.850;8.924;2023-08-07T00:12:10;96654.44;;;11.31;91.36
10135;BME280;5107;48.850;8.924;2023-08-07T00:14:35;96649.81;;;11.33;91.50
10135;BME280;5107;48.850;8.924;2023-08-07T00:17:01;96654.25;;;11.32;90.83
10135;BME280;5107;48.850;8.924;2023-08-07T00:19:26;96659.34;;;11.34;91.52
10135;BME280;5107;48.850;8.924;2023-08-07T00:21:51;96655.56;;;11.36;90.59
10135;BME280;5107;48.850;8.924;2023-08-07T00:24:16;96656.56;;;11.35;91.13
10135;BME280;5107;48.850;8.924;2023-08-07T00:26:42;96658.19;;;11.36;90.47
10135;BME280;5107;48.850;8.924;2023-08-07T00:29:07;96659.63;;;11.39;90.26
10135;BME280;5107;48.850;8.924;2023-08-07T00:31:32;96657.81;;;11.39;90.62
10135;BME280;5107;48.850;8.924;2023-08-07T00:33:59;96662.28;;;11.39;90.33
10135;BME280;5107;48.850;8.924;2023-08-07T00:36:24;96673.47;;;11.41;90.28
10135;BME280;5107;48.850;8.924;2023-08-07T00:38:50;96671.47;;;11.43;90.53
10135;BME280;5107;48.850;8.924;2023-08-07T00:41:17;96667.19;;;11.42;89.94
10135;BME280;5107;48.850;8.924;2023-08-07T00:43:43;96675.75;;;11.44;90.18
10135;BME280;5107;48.850;8.924;2023-08-07T00:46:08;96674.28;;;11.41;89.31
10135;BME280;5107;48.850;8.924;2023-08-07T00:48:34;96674.13;;;11.43;89.62
10135;BME280;5107;48.850;8.924;2023-08-07T00:50:59;96673.28;;;11.43;89.72
10135;BME280;5107;48.850;8.924;2023-08-07T00:53:25;96673.28;;;11.43;89.99
10135;BME280;5107;48.850;8.924;2023-08-07T00:55:50;96675.94;;;11.43;89.36
10135;BME280;5107;48.850;8.924;2023-08-07T00:58:16;96670.81;;;11.41;89.34
10135;BME280;5107;48.850;8.924;2023-08-07T01:00:42;96675.75;;;11.44;89.22
10135;BME280;5107;48.850;8.924;2023-08-07T01:03:08;96673.94;;;11.45;89.77
10135;BME280;5107;48.850;8.924;2023-08-07T01:05:34;96674.94;;;11.44;89.60
10135;BME280;5107;48.850;8.924;2023-08-07T01:07:59;96673.94;;;11.45;88.62
10135;BME280;5107;48.850;8.924;2023-08-07T01:13:04;96676.56;;;11.45;88.50
10135;BME280;5107;48.850;8.924;2023-08-07T01:15:34;96679.22;;;11.45;88.02
10135;BME280;5107;48.850;8.924;2023-08-07T01:18:00;96683.66;;;11.44;88.05
10135;BME280;5107;48.850;8.924;2023-08-07T01:20:26;96683.84;;;11.43;87.99
10135;BME280;5107;48.850;8.924;2023-08-07T01:22:51;96680.38;;;11.42;88.33
10135;BME280;5107;48.850;8.924;2023-08-07T01:25:17;96675.94;;;11.43;87.57
10135;BME280;5107;48.850;8.924;2023-08-07T01:28:24;96685.00;;;11.40;86.98
10135;BME280;5107;48.850;8.924;2023-08-07T01:30:55;96682.34;;;11.40;86.99
10135;BME280;5107;48.850;8.924;2023-08-07T01:33:31;96695.53;;;11.40;86.42
10135;BME280;5107;48.850;8.924;2023-08-07T01:36:00;96687.44;;;11.41;86.89
10135;BME280;5107;48.850;8.924;2023-08-07T01:38:26;96690.25;;;11.40;86.63
10135;BME280;5107;48.850;8.924;2023-08-07T01:40:53;96693.53;;;11.42;86.26
10135;BME280;5107;48.850;8.924;2023-08-07T01:43:19;96700.81;;;11.40;85.45
10135;BME280;5107;48.850;8.924;2023-08-07T01:45:45;96699.81;;;11.41;85.78
10135;BME280;5107;48.850;8.924;2023-08-07T01:48:11;96703.09;;;11.43;85.78
10135;BME280;5107;48.850;8.924;2023-08-07T01:50:38;96708.38;;;11.43;86.17
10135;BME280;5107;48.850;8.924;2023-08-07T01:53:03;96701.28;;;11.44;84.85
10135;BME280;5107;48.850;8.924;2023-08-07T01:55:28;96707.38;;;11.44;84.79
10135;BME280;5107;48.850;8.924;2023-08-07T01:57:54;96706.72;;;11.42;84.80
10135;BME280;5107;48.850;8.924;2023-08-07T02:00:19;96706.56;;;11.44;85.05
10135;BME280;5107;48.850;8.924;2023-08-07T02:02:45;96708.53;;;11.41;85.57
10135;BME280;5107;48.850;8.924;2023-08-07T02:05:12;96717.44;;;11.40;85.54
10135;BME280;5107;48.850;8.924;2023-08-07T02:07:37;96711.00;;;11.43;86.01
10135;BME280;5107;48.850;8.924;2023-08-07T02:10:02;96717.75;;;11.46;86.30
10135;BME280;5107;48.850;8.924;2023-08-07T02:12:28;96715.09;;;11.46;86.11
10135;BME280;5107;48.850;8.924;2023-08-07T02:14:57;96719.06;;;11.41;85.89
10135;BME280;5107;48.850;8.924;2023-08-07T02:17:22;96714.97;;;11.39;85.82
10135;BME280;5107;48.850;8.924;2023-08-07T02:19:47;96719.41;;;11.38;86.64
10135;BME280;5107;48.850;8.924;2023-08-07T02:22:13;96713.69;;;11.35;86.11
10135;BME280;5107;48.850;8.924;2023-08-07T02:24:38;96719.13;;;11.33;85.94
10135;BME280;5107;48.850;8.924;2023-08-07T02:27:04;96714.69;;;11.34;85.23
10135;BME280;5107;48.850;8.924;2023-08-07T02:29:29;96713.03;;;11.33;85.42
10135;BME280;5107;48.850;8.924;2023-08-07T02:31:55;96716.00;;;11.30;85.51
10135;BME280;5107;48.850;8.924;2023-08-07T02:34:20;96705.84;;;11.27;84.92
10135;BME280;5107;48.850;8.924;2023-08-07T02:36:45;96714.06;;;11.24;84.51
10135;BME280;5107;48.850;8.924;2023-08-07T02:39:13;96714.44;;;11.21;85.12
10135;BME280;5107;48.850;8.924;2023-08-07T02:41:39;96719.50;;;11.22;84.39
10135;BME280;5107;48.850;8.924;2023-08-07T02:44:04;96713.41;;;11.22;85.13
10135;BME280;5107;48.850;8.924;2023-08-07T02:46:30;96713.78;;;11.19;85.11
10135;BME280;5107;48.850;8.924;2023-08-07T02:48:55;96718.06;;;11.20;85.25
10135;BME280;5107;48.850;8.924;2023-08-07T02:51:20;96717.91;;;11.21;84.47
10135;BME280;5107;48.850;8.924;2023-08-07T02:53:46;96725.59;;;11.23;85.24
10135;BME280;5107;48.850;8.924;2023-08-07T02:56:11;96726.25;;;11.25;84.83
10135;BME280;5107;48.850;8.924;2023-08-07T02:58:36;96725.25;;;11.26;84.29
10135;BME280;5107;48.850;8.924;2023-08-07T03:01:05;96726.91;;;11.27;84.58
10135;BME280;5107;48.850;8.924;2023-08-07T03:03:31;96732.19;;;11.27;84.82
10135;BME280;5107;48.850;8.924;2023-08-07T03:05:57;96730.53;;;11.26;84.61
10135;BME280;5107;48.850;8.924;2023-08-07T03:08:22;96727.91;;;11.26;85.25
10135;BME280;5107;48.850;8.924;2023-08-07T03:10:55;96724.31;;;11.19;84.96
10135;BME280;5107;48.850;8.924;2023-08-07T03:13:22;96726.31;;;11.17;85.57
10135;BME280;5107;48.850;8.924;2023-08-07T03:15:48;96730.56;;;11.18;86.04
10135;BME280;5107;48.850;8.924;2023-08-07T03:18:15;96723.84;;;11.15;85.62
10135;BME280;5107;48.850;8.924;2023-08-07T03:20:41;96723.38;;;11.12;85.48
10135;BME280;5107;48.850;8.924;2023-08-07T03:23:06;96720.75;;;11.12;85.86
10135;BME280;5107;48.850;8.924;2023-08-07T03:25:32;96716.47;;;11.11;86.13
10135;BME280;5107;48.850;8.924;2023-08-07T03:27:57;96713.84;;;11.11;86.51
10135;BME280;5107;48.850;8.924;2023-08-07T03:30:23;96713.19;;;11.09;86.66
10135;BME280;5107;48.850;8.924;2023-08-07T03:32:48;96720.09;;;11.10;86.99
10135;BME280;5107;48.850;8.924;2023-08-07T03:35:15;96727.34;;;11.08;86.89
10135;BME280;5107;48.850;8.924;2023-08-07T03:37:40;96728.00;;;11.10;86.07
10135;BME280;5107;48.850;8.924;2023-08-07T03:40:06;96721.72;;;11.11;85.68
10135;BME280;5107;48.850;8.924;2023-08-07T03:42:31;96726.00;;;11.12;86.01
10135;BME280;5107;48.850;8.924;2023-08-07T03:44:56;96728.28;;;11.15;86.06
10135;BME280;5107;48.850;8.924;2023-08-07T03:47:23;96729.91;;;11.16;85.42
10135;BME280;5107;48.850;8.924;2023-08-07T03:49:48;96732.56;;;11.16;85.42
10135;BME280;5107;48.850;8.924;2023-08-07T03:52:14;96727.13;;;11.17;85.16
10135;BME280;5107;48.850;8.924;2023-08-07T03:54:39;96723.84;;;11.15;85.03
10135;BME280;5107;48.850;8.924;2023-08-07T03:57:05;96724.31;;;11.19;84.36
10135;BME280;5107;48.850;8.924;2023-08-07T03:59:30;96729.59;;;11.19;84.44
10135;BME280;5107;48.850;8.924;2023-08-07T04:01:55;96726.25;;;11.25;82.99
10135;BME280;5107;48.850;8.924;2023-08-07T04:04:21;96722.16;;;11.22;83.40
10135;BME280;5107;48.850;8.924;2023-08-07T04:06:46;96731.53;;;11.25;83.80
10135;BME280;5107;48.850;8.924;2023-08-07T04:09:11;96743.03;;;11.24;83.56
10135;BME280;5107;48.850;8.924;2023-08-07T04:11:37;96727.06;;;11.25;83.10
10135;BME280;5107;48.850;8.924;2023-08-07T04:14:03;96727.72;;;11.27;83.07
10135;BME280;5107;48.850;8.924;2023-08-07T04:16:29;96732.63;;;11.30;83.23
10135;BME280;5107;48.850;8.924;2023-08-07T04:18:56;96740.16;;;11.41;83.74
10135;BME280;5107;48.850;8.924;2023-08-07T04:21:21;96735.81;;;11.49;83.02
10135;BME280;5107;48.850;8.924;2023-08-07T04:23:46;96742.56;;;11.51;83.86
10135;BME280;5107;48.850;8.924;2023-08-07T04:26:12;96744.25;;;11.44;82.85
10135;BME280;5107;48.850;8.924;2023-08-07T04:28:37;96739.94;;;11.51;82.84
10135;BME280;5107;48.850;8.924;2023-08-07T04:31:02;96748.81;;;11.50;82.82
10135;BME280;5107;48.850;8.924;2023-08-07T04:33:28;96748.47;;;11.53;83.34
10135;BME280;5107;48.850;8.924;2023-08-07T04:35:53;96752.94;;;11.53;83.19
10135;BME280;5107;48.850;8.924;2023-08-07T04:38:19;96755.41;;;11.54;83.28
10135;BME280;5107;48.850;8.924;2023-08-07T04:40:48;96751.75;;;11.55;83.19
10135;BME280;5107;48.850;8.924;2023-08-07T04:43:18;96754.09;;;11.50;82.97
10135;BME280;5107;48.850;8.924;2023-08-07T04:45:44;96742.72;;;11.50;83.31
10135;BME280;5107;48.850;8.924;2023-08-07T04:48:10;96757.84;;;11.56;83.50
10135;BME280;5107;48.850;8.924;2023-08-07T04:50:37;96754.69;;;11.60;83.31
10135;BME280;5107;48.850;8.924;2023-08-07T04:53:02;96756.84;;;11.57;82.92
10135;BME280;5107;48.850;8.924;2023-08-07T04:55:28;96754.69;;;11.60;84.15
10135;BME280;5107;48.850;8.924;2023-08-07T04:57:53;96750.41;;;11.59;84.16
10135;BME280;5107;48.850;8.924;2023-08-07T05:00:22;96759.16;;;11.60;83.63
10135;BME280;5107;48.850;8.924;2023-08-07T05:02:47;96756.97;;;11.63;83.60
10135;BME280;5107;48.850;8.924;2023-08-07T05:05:16;96768.00;;;11.67;83.85
10135;BME280;5107;48.850;8.924;2023-08-07T05:07:44;96761.88;;;11.74;84.12
10135;BME280;5107;48.850;8.924;2023-08-07T05:10:09;96773.34;;;11.82;83.74
10135;BME280;5107;48.850;8.924;2023-08-07T05:12:35;96760.09;;;11.90;83.57
10135;BME280;5107;48.850;8.924;2023-08-07T05:15:01;96763.31;;;12.00;82.45
10135;BME280;5107;48.850;8.924;2023-08-07T05:17:26;96757.06;;;12.01;82.46
10135;BME280;5107;48.850;8.924;2023-08-07T05:19:52;96759.53;;;12.02;81.18
10135;BME280;5107;48.850;8.924;2023-08-07T05:22:17;96763.25;;;12.08;81.84
10135;BME280;5107;48.850;8.924;2023-08-07T05:24:42;96777.28;;;12.08;81.51
10135;BME280;5107;48.850;8.924;2023-08-07T05:27:10;96776.81;;;12.05;80.98
10135;BME280;5107;48.850;8.924;2023-08-07T05:29:35;96775.34;;;12.02;81.01
10135;BME280;5107;48.850;8.924;2023-08-07T05:32:11;96780.72;;;12.09;80.31
10135;BME280;5107;48.850;8.924;2023-08-07T05:34:36;96786.22;;;12.22;80.51
10135;BME280;5107;48.850;8.924;2023-08-07T05:37:02;96779.63;;;12.55;81.58
10135;BME280;5107;48.850;8.924;2023-08-07T05:39:27;96789.91;;;12.50;78.96
10135;BME280;5107;48.850;8.924;2023-08-07T05:41:52;96789.72;;;12.37;79.06
10135;BME280;5107;48.850;8.924;2023-08-07T05:44:19;96792.53;;;12.36;79.81
10135;BME280;5107;48.850;8.924;2023-08-07T05:46:45;96794.19;;;12.37;79.60
10135;BME280;5107;48.850;8.924;2023-08-07T05:49:10;96802.22;;;12.58;79.66
10135;BME280;5107;48.850;8.924;2023-08-07T05:51:35;96796.84;;;12.51;78.77
10135;BME280;5107;48.850;8.924;2023-08-07T05:54:01;96798.50;;;12.52;78.65
10135;BME280;5107;48.850;8.924;2023-08-07T05:56:26;96802.97;;;12.67;79.56
10135;BME280;5107;48.850;8.924;2023-08-07T05:58:51;96803.69;;;12.61;78.71
10135;BME280;5107;48.850;8.924;2023-08-07T06:01:17;96805.94;;;12.64;79.13
10135;BME280;5107;48.850;8.924;2023-08-07T06:03:43;96803.97;;;12.66;79.17
10135;BME280;5107;48.850;8.924;2023-08-07T06:06:08;96809.63;;;12.63;79.66
10135;BME280;5107;48.850;8.924;2023-08-07T06:08:33;96807.50;;;12.58;79.13
10135;BME280;5107;48.850;8.924;2023-08-07T06:10:59;96809.31;;;12.58;79.43
10135;BME280;5107;48.850;8.924;2023-08-07T06:13:28;96814.00;;;12.70;79.72
10135;BME280;5107;48.850;8.924;2023-08-07T06:15:54;96810.63;;;12.76;79.36
10135;BME280;5107;48.850;8.924;2023-08-07T06:18:19;96814.59;;;12.72;78.70
10135;BME280;5107;48.850;8.924;2023-08-07T06:20:45;96809.06;;;12.67;79.32
10135;BME280;5107;48.850;8.924;2023-08-07T06:23:11;96820.38;;;12.76;79.17
10135;BME280;5107;48.850;8.924;2023-08-07T06:25:37;96810.81;;;12.75;78.06
10135;BME280;5107;48.850;8.924;2023-08-07T06:28:02;96822.75;;;12.85;78.57
10135;BME280;5107;48.850;8.924;2023-08-07T06:30:28;96821.53;;;12.73;78.31
10135;BME280;5107;48.850;8.924;2023-08-07T06:32:56;96819.53;;;12.75;77.84
10135;BME280;5107;48.850;8.924;2023-08-07T06:35:21;96819.09;;;12.72;78.35
10135;BME280;5107;48.850;8.924;2023-08-07T06:37:47;96820.53;;;12.74;77.47
10135;BME280;5107;48.850;8.924;2023-08-07T06:40:12;96823.00;;;12.76;77.36
10135;BME280;5107;48.850;8.924;2023-08-07T06:42:37;96825.03;;;12.88;77.35
10135;BME280;5107;48.850;8.924;2023-08-07T06:45:03;96820.84;;;12.79;76.40
10135;BME280;5107;48.850;8.924;2023-08-07T06:47:29;96822.91;;;12.84;75.80
10135;BME280;5107;48.850;8.924;2023-08-07T06:49:54;96820.50;;;12.97;75.16
10135;BME280;5107;48.850;8.924;2023-08-07T06:52:20;96828.75;;;12.94;74.61
10135;BME280;5107;48.850;8.924;2023-08-07T06:54:45;96806.06;;;12.85;73.59
10135;BME280;5107;48.850;8.924;2023-08-07T06:57:11;96813.44;;;12.75;72.62
10135;BME280;5107;48.850;8.924;2023-08-07T06:59:36;96818.00;;;12.81;73.70
10135;BME280;5107;48.850;8.924;2023-08-07T07:02:03;96815.91;;;12.91;73.09
10135;BME280;5107;48.850;8.924;2023-08-07T07:04:29;96827.19;;;12.85;73.21
10135;BME280;5107;48.850;8.924;2023-08-07T07:06:54;96829.66;;;12.86;73.03
10135;BME280;5107;48.850;8.924;2023-08-07T07:09:20;96832.56;;;12.77;73.45
10135;BME280;5107;48.850;8.924;2023-08-07T07:11:45;96827.19;;;12.70;73.82
10135;BME280;5107;48.850;8.924;2023-08-07T07:14:11;96826.28;;;12.63;74.48
10135;BME280;5107;48.850;8.924;2023-08-07T07:16:36;96833.31;;;12.71;74.63
10135;BME280;5107;48.850;8.924;2023-08-07T07:19:03;96840.97;;;13.10;73.88
10135;BME280;5107;48.850;8.924;2023-08-07T07:21:28;96839.16;;;13.40;73.24
10135;BME280;5107;48.850;8.924;2023-08-07T07:23:54;96846.41;;;13.67;71.58
10135;BME280;5107;48.850;8.924;2023-08-07T07:26:19;96855.22;;;13.89;71.12
10135;BME280;5107;48.850;8.924;2023-08-07T07:28:44;96862.28;;;14.03;70.73
10135;BME280;5107;48.850;8.924;2023-08-07T07:31:10;96852.34;;;14.26;69.44
10135;BME280;5107;48.850;8.924;2023-08-07T07:33:37;96853.34;;;14.04;69.13
10135;BME280;5107;48.850;8.924;2023-08-07T07:36:04;96863.78;;;13.91;71.29
10135;BME280;5107;48.850;8.924;2023-08-07T07:38:30;96855.72;;;13.99;69.87
10135;BME280;5107;48.850;8.924;2023-08-07T07:40:56;96870.16;;;14.18;70.61
10135;BME280;5107;48.850;8.924;2023-08-07T07:43:22;96873.25;;;14.00;69.36
10135;BME280;5107;48.850;8.924;2023-08-07T07:45:48;96878.06;;;13.60;69.99
10135;BME280;5107;48.850;8.924;2023-08-07T07:48:13;96875.28;;;13.47;70.73
10135;BME280;5107;48.850;8.924;2023-08-07T07:50:39;96890.19;;;13.40;70.59
10135;BME280;5107;48.850;8.924;2023-08-07T07:53:04;96893.19;;;13.22;71.15
10135;BME280;5107;48.850;8.924;2023-08-07T07:55:29;96891.59;;;13.21;71.29
10135;BME280;5107;48.850;8.924;2023-08-07T07:57:55;96894.50;;;13.26;72.00
10135;BME280;5107;48.850;8.924;2023-08-07T08:00:21;96886.81;;;13.32;71.64
10135;BME280;5107;48.850;8.924;2023-08-07T08:02:48;96891.56;;;13.51;71.65
10135;BME280;5107;48.850;8.924;2023-08-07T08:05:13;96890.38;;;13.53;70.01
10135;BME280;5107;48.850;8.924;2023-08-07T08:07:42;96878.97;;;13.67;68.50
10135;BME280;5107;48.850;8.924;2023-08-07T08:10:08;96893.06;;;13.89;69.44
10135;BME280;5107;48.850;8.924;2023-08-07T08:12:34;96890.63;;;13.88;67.54
10135;BME280;5107;48.850;8.924;2023-08-07T08:15:00;96893.59;;;13.99;66.19
10135;BME280;5107;48.850;8.924;2023-08-07T08:17:25;96904.56;;;14.18;67.02
10135;BME280;5107;48.850;8.924;2023-08-07T08:19:51;96888.81;;;14.95;62.87
10135;BME280;5107;48.850;8.924;2023-08-07T08:22:16;96898.16;;;14.91;62.48
10135;BME280;5107;48.850;8.924;2023-08-07T08:24:41;96902.09;;;14.73;61.57
10135;BME280;5107;48.850;8.924;2023-08-07T08:27:07;96886.41;;;14.51;62.19
10135;BME280;5107;48.850;8.924;2023-08-07T08:29:32;96898.00;;;14.71;61.98
10135;BME280;5107;48.850;8.924;2023-08-07T08:31:57;96907.16;;;14.68;62.76
10135;BME280;5107;48.850;8.924;2023-08-07T08:34:25;96897.13;;;14.64;61.36
10135;BME280;5107;48.850;8.924;2023-08-07T08:36:50;96910.22;;;14.93;62.32
10135;BME280;5107;48.850;8.924;2023-08-07T08:39:16;96906.38;;;14.96;60.66
10135;BME280;5107;48.850;8.924;2023-08-07T08:41:46;96909.53;;;15.12;60.88
10135;BME280;5107;48.850;8.924;2023-08-07T08:44:12;96899.13;;;15.11;61.18
10135;BME280;5107;48.850;8.924;2023-08-07T08:46:38;96909.25;;;15.01;60.40
10135;BME280;5107;48.850;8.924;2023-08-07T08:49:05;96910.28;;;15.62;59.88
10135;BME280;5107;48.850;8.924;2023-08-07T08:51:32;96912.41;;;15.80;59.26
10135;BME280;5107;48.850;8.924;2023-08-07T08:53:59;96909.25;;;15.57;58.71
10135;BME280;5107;48.850;8.924;2023-08-07T08:56:25;96916.22;;;16.12;58.96
10135;BME280;5107;48.850;8.924;2023-08-07T08:58:50;96910.16;;;16.44;57.06
10135;BME280;5107;48.850;8.924;2023-08-07T09:01:18;96920.19;;;16.42;55.35
10135;BME280;5107;48.850;8.924;2023-08-07T09:03:47;96910.03;;;16.79;54.35
10135;BME280;5107;48.850;8.924;2023-08-07T09:06:13;96908.19;;;17.19;54.92
10135;BME280;5107;48.850;8.924;2023-08-07T09:08:42;96910.41;;;17.41;53.94
10135;BME280;5107;48.850;8.924;2023-08-07T09:11:08;96911.88;;;17.31;54.31
10135;BME280;5107;48.850;8.924;2023-08-07T09:13:34;96911.28;;;16.89;55.73
10135;BME280;5107;48.850;8.924;2023-08-07T09:16:01;96916.69;;;16.42;57.09
10135;BME280;5107;48.850;8.924;2023-08-07T09:18:27;96912.59;;;15.72;56.13
10135;BME280;5107;48.850;8.924;2023-08-07T09:20:53;96925.03;;;15.43;56.33
10135;BME280;5107;48.850;8.924;2023-08-07T09:23:18;96926.06;;;15.42;57.19
10135;BME280;5107;48.850;8.924;2023-08-07T09:25:44;96928.75;;;15.83;58.34
10135;BME280;5107;48.850;8.924;2023-08-07T09:28:09;96931.75;;;15.74;57.39
10135;BME280;5107;48.850;8.924;2023-08-07T09:30:35;96927.25;;;15.40;58.68
10135;BME280;5107;48.850;8.924;2023-08-07T09:33:03;96941.69;;;15.31;58.57
10135;BME280;5107;48.850;8.924;2023-08-07T09:35:30;96947.41;;;15.34;58.98
10135;BME280;5107;48.850;8.924;2023-08-07T09:37:57;96946.19;;;15.30;60.48
10135;BME280;5107;48.850;8.924;2023-08-07T09:40:23;96960.13;;;15.39;59.04
10135;BME280;5107;48.850;8.924;2023-08-07T09:42:52;96947.59;;;15.54;58.45
10135;BME280;5107;48.850;8.924;2023-08-07T09:45:22;96949.53;;;15.73;57.69
10135;BME280;5107;48.850;8.924;2023-08-07T09:48:01;96944.25;;;15.73;56.43
10135;BME280;5107;48.850;8.924;2023-08-07T09:50:27;96940.38;;;15.82;57.27
10135;BME280;5107;48.850;8.924;2023-08-07T09:52:53;96945.09;;;16.35;56.42
10135;BME280;5107;48.850;8.924;2023-08-07T09:55:20;96941.13;;;16.85;54.57
10135;BME280;5107;48.850;8.924;2023-08-07T09:57:45;96942.16;;;17.36;54.89
10135;BME280;5107;48.850;8.924;2023-08-07T10:00:14;96945.78;;;17.75;51.41
10135;BME280;5107;48.850;8.924;2023-08-07T10:02:41;96933.38;;;16.96;52.93
10135;BME280;5107;48.850;8.924;2023-08-07T10:05:09;96953.00;;;17.22;53.87
10135;BME280;5107;48.850;8.924;2023-08-07T10:07:35;96938.81;;;16.55;53.71
10135;BME280;5107;48.850;8.924;2023-08-07T10:10:02;96936.53;;;16.39;54.74
10135;BME280;5107;48.850;8.924;2023-08-07T10:12:28;96937.03;;;16.62;54.37
10135;BME280;5107;48.850;8.924;2023-08-07T10:14:54;96939.47;;;16.84;53.76
10135;BME280;5107;48.850;8.924;2023-08-07T10:17:23;96940.22;;;16.51;53.70
10135;BME280;5107;48.850;8.924;2023-08-07T10:19:50;96932.25;;;16.51;53.17
10135;BME280;5107;48.850;8.924;2023-08-07T10:22:17;96948.19;;;16.45;52.77
10135;BME280;5107;48.850;8.924;2023-08-07T10:24:43;96937.34;;;16.40;53.96
10135;BME280;5107;48.850;8.924;2023-08-07T10:27:13;96955.97;;;16.46;55.04
10135;BME280;5107;48.850;8.924;2023-08-07T10:29:41;96955.59;;;16.08;53.91
10135;BME280;5107;48.850;8.924;2023-08-07T10:32:07;96956.13;;;15.90;53.00
10135;BME280;5107;48.850;8.924;2023-08-07T10:34:33;96958.91;;;16.17;54.45
10135;BME280;5107;48.850;8.924;2023-08-07T10:36:59;96952.44;;;16.32;53.45
10135;BME280;5107;48.850;8.924;2023-08-07T10:39:24;96951.75;;;16.78;54.65
10135;BME280;5107;48.850;8.924;2023-08-07T10:41:55;96955.47;;;17.03;53.13
10135;BME280;5107;48.850;8.924;2023-08-07T10:44:22;96955.84;;;17.00;52.87
10135;BME280;5107;48.850;8.924;2023-08-07T10:46:52;96959.28;;;16.68;53.41
10135;BME280;5107;48.850;8.924;2023-08-07T10:51:58;96962.28;;;16.45;54.16
10135;BME280;5107;48.850;8.924;2023-08-07T10:54:24;96957.72;;;16.26;55.02
10135;BME280;5107;48.850;8.924;2023-08-07T10:56:54;96958.72;;;16.18;55.87
10135;BME280;5107;48.850;8.924;2023-08-07T10:59:20;96960.56;;;16.18;55.25
10135;BME280;5107;48.850;8.924;2023-08-07T11:01:51;96955.69;;;16.21;55.36
10135;BME280;5107;48.850;8.924;2023-08-07T11:04:17;96955.91;;;15.85;55.60
10135;BME280;5107;48.850;8.924;2023-08-07T11:06:47;96964.03;;;16.18;56.04
10135;BME280;5107;48.850;8.924;2023-08-07T11:09:12;96966.28;;;16.15;55.80
10135;BME280;5107;48.850;8.924;2023-08-07T11:11:45;96962.63;;;16.22;55.93
10135;BME280;5107;48.850;8.924;2023-08-07T11:14:18;96971.78;;;16.13;56.02
10135;BME280;5107;48.850;8.924;2023-08-07T11:16:45;96968.44;;;15.98;56.64
10135;BME280;5107;48.850;8.924;2023-08-07T11:19:13;96975.09;;;15.81;56.81
10135;BME280;5107;48.850;8.924;2023-08-07T11:21:40;96977.25;;;15.64;57.57
10135;BME280;5107;48.850;8.924;2023-08-07T11:24:05;96982.41;;;15.51;58.53
10135;BME280;5107;48.850;8.924;2023-08-07T11:26:31;96979.56;;;15.52;58.61
10135;BME280;5107;48.850;8.924;2023-08-07T11:28:57;96979.22;;;15.55;58.48
10135;BME280;5107;48.850;8.924;2023-08-07T11:31:23;96982.41;;;15.51;59.51
10135;BME280;5107;48.850;8.924;2023-08-07T11:33:51;96983.72;;;15.55;60.05
10135;BME280;5107;48.850;8.924;2023-08-07T11:36:16;96989.75;;;15.49;59.71
10135;BME280;5107;48.850;8.924;2023-08-07T11:38:43;96989.38;;;15.52;59.99
10135;BME280;5107;48.850;8.924;2023-08-07T11:41:11;96995.25;;;15.47;59.30
10135;BME280;5107;48.850;8.924;2023-08-07T11:43:37;96983.75;;;15.40;59.20
10135;BME280;5107;48.850;8.924;2023-08-07T11:46:11;96991.16;;;15.45;60.11
10135;BME280;5107;48.850;8.924;2023-08-07T11:48:38;96982.72;;;15.56;60.23
10135;BME280;5107;48.850;8.924;2023-08-07T11:51:04;96980.81;;;15.84;60.11
10135;BME280;5107;48.850;8.924;2023-08-07T11:53:35;96983.47;;;16.25;60.12
10135;BME280;5107;48.850;8.924;2023-08-07T11:56:03;96985.19;;;16.53;60.25
10135;BME280;5107;48.850;8.924;2023-08-07T11:58:35;96981.47;;;16.41;57.68
10135;BME280;5107;48.850;8.924;2023-08-07T12:01:12;96994.66;;;16.62;58.76
10135;BME280;5107;48.850;8.924;2023-08-07T12:03:54;96985.53;;;17.04;59.39
10135;BME280;5107;48.850;8.924;2023-08-07T12:06:20;96985.31;;;17.12;57.46
10135;BME280;5107;48.850;8.924;2023-08-07T12:08:48;96989.84;;;17.64;58.32
10135;BME280;5107;48.850;8.924;2023-08-07T12:11:14;96989.00;;;17.77;57.82
10135;BME280;5107;48.850;8.924;2023-08-07T12:13:44;96988.72;;;18.05;57.00
10135;BME280;5107;48.850;8.924;2023-08-07T12:16:10;96998.41;;;17.60;57.12
10135;BME280;5107;48.850;8.924;2023-08-07T12:18:43;97000.03;;;16.95;58.26
10135;BME280;5107;48.850;8.924;2023-08-07T12:21:09;96992.88;;;17.08;57.97
10135;BME280;5107;48.850;8.924;2023-08-07T12:23:36;96983.19;;;18.00;57.25
10135;BME280;5107;48.850;8.924;2023-08-07T12:26:03;96993.94;;;18.38;55.86
10135;BME280;5107;48.850;8.924;2023-08-07T12:28:30;96988.47;;;18.19;55.49
10135;BME280;5107;48.850;8.924;2023-08-07T12:30:56;96986.53;;;17.82;55.71
10135;BME280;5107;48.850;8.924;2023-08-07T12:33:21;96986.13;;;17.78;54.80
10135;BME280;5107;48.850;8.924;2023-08-07T12:35:47;96981.31;;;18.13;54.73
10135;BME280;5107;48.850;8.924;2023-08-07T12:38:12;96980.69;;;18.18;53.36
10135;BME280;5107;48.850;8.924;2023-08-07T12:40:40;96987.38;;;17.56;53.73
10135;BME280;5107;48.850;8.924;2023-08-07T12:43:06;96983.25;;;17.87;54.59
10135;BME280;5107;48.850;8.924;2023-08-07T12:45:31;96983.19;;;18.00;54.48
10135;BME280;5107;48.850;8.924;2023-08-07T12:47:57;96986.44;;;18.08;53.78
10135;BME280;5107;48.850;8.924;2023-08-07T12:50:23;96982.63;;;17.85;53.14
10135;BME280;5107;48.850;8.924;2023-08-07T12:52:48;96980.97;;;17.83;54.62
10135;BME280;5107;48.850;8.924;2023-08-07T12:55:13;96990.97;;;18.01;55.74
10135;BME280;5107;48.850;8.924;2023-08-07T12:57:42;96995.44;;;18.20;56.82
10135;BME280;5107;48.850;8.924;2023-08-07T13:00:09;96990.53;;;18.11;56.52
10135;BME280;5107;48.850;8.924;2023-08-07T13:02:40;96991.41;;;17.98;56.98
10135;BME280;5107;48.850;8.924;2023-08-07T13:05:06;96983.84;;;17.95;57.45
10135;BME280;5107;48.850;8.924;2023-08-07T13:07:31;96990.66;;;17.65;56.57
10135;BME280;5107;48.850;8.924;2023-08-07T13:09:56;96993.91;;;17.60;57.23